createdAt,value
2019-04-29T00:01:29.846Z,1.80
2019-04-29T00:03:59.243Z,1.97
2019-04-29T00:06:29.091Z,2.00
2019-04-29T00:08:58.413Z,1.90
2019-04-29T00:11:28.471Z,2.07
2019-04-29T00:13:57.989Z,2.00
2019-04-29T00:16:34.562Z,2.33
2019-04-29T00:19:26.074Z,2.43
2019-04-29T00:21:55.994Z,1.90
2019-04-29T00:24:25.912Z,2.17
2019-04-29T00:26:55.753Z,2.47
2019-04-29T00:29:25.865Z,2.87
2019-04-29T00:31:55.202Z,2.33
2019-04-29T00:34:24.490Z,2.50
2019-04-29T00:37:13.028Z,2.50
2019-04-29T00:40:17.177Z,2.10
2019-04-29T00:42:56.237Z,2.43
2019-04-29T00:45:26.563Z,2.60
2019-04-29T00:47:55.860Z,2.60
2019-04-29T00:50:25.712Z,3.23
2019-04-29T00:52:55.009Z,2.60
2019-04-29T00:55:26.377Z,2.13
2019-04-29T00:57:55.612Z,2.40
2019-04-29T01:00:31.904Z,2.60
2019-04-29T01:03:01.899Z,2.73
2019-04-29T01:05:31.417Z,2.80
2019-04-29T01:08:00.692Z,3.13
2019-04-29T01:10:30.470Z,2.83
2019-04-29T01:13:00.385Z,3.13
2019-04-29T01:15:30.585Z,3.10
2019-04-29T01:17:59.909Z,2.87
2019-04-29T01:20:29.892Z,2.57
2019-04-29T01:23:00.048Z,3.10
2019-04-29T01:25:29.926Z,2.90
2019-04-29T01:28:08.526Z,2.97
2019-04-29T01:31:09.445Z,2.77
2019-04-29T01:33:39.210Z,3.03
2019-04-29T01:36:27.573Z,3.07
2019-04-29T01:38:59.379Z,3.03
2019-04-29T01:41:31.298Z,3.37
2019-04-29T01:44:02.982Z,3.63
2019-04-29T01:46:32.294Z,3.47
2019-04-29T01:49:02.054Z,3.00
2019-04-29T01:51:31.929Z,3.17
2019-04-29T01:54:01.277Z,3.40
2019-04-29T01:56:30.555Z,3.27
2019-04-29T01:58:59.799Z,3.40
2019-04-29T02:01:29.088Z,3.20
2019-04-29T02:03:58.327Z,3.53
2019-04-29T02:06:27.741Z,3.70
2019-04-29T02:08:57.696Z,3.10
2019-04-29T02:11:27.036Z,3.17
2019-04-29T02:13:56.239Z,3.50
2019-04-29T02:16:25.494Z,3.40
2019-04-29T02:18:55.268Z,3.60
2019-04-29T02:21:25.194Z,3.57
2019-04-29T02:24:04.353Z,3.53
2019-04-29T02:26:34.317Z,3.50
2019-04-29T02:29:05.049Z,3.17
2019-04-29T02:31:45.005Z,3.53
2019-04-29T02:34:14.486Z,3.67
2019-04-29T02:36:43.723Z,3.60
2019-04-29T02:39:31.000Z,4.03
2019-04-29T02:42:28.332Z,3.20
2019-04-29T02:45:02.466Z,3.20
2019-04-29T02:47:32.489Z,3.77
2019-04-29T02:50:02.413Z,3.50
2019-04-29T02:52:31.778Z,3.87
2019-04-29T02:55:03.263Z,3.87
2019-04-29T02:57:47.506Z,4.07
2019-04-29T03:00:45.026Z,3.80
2019-04-29T03:03:20.898Z,4.17
2019-04-29T03:05:54.313Z,3.83
2019-04-29T03:08:24.282Z,3.93
2019-04-29T03:10:54.213Z,3.87
2019-04-29T03:13:25.391Z,4.70
2019-04-29T03:15:55.610Z,3.63
2019-04-29T03:18:26.794Z,4.10
2019-04-29T03:21:08.778Z,3.97
2019-04-29T03:23:38.861Z,4.00
2019-04-29T03:26:08.804Z,4.37
2019-04-29T03:28:38.763Z,4.13
2019-04-29T03:31:08.119Z,4.67
2019-04-29T03:33:38.023Z,4.13
2019-04-29T03:36:08.541Z,4.40
2019-04-29T03:38:37.811Z,4.90
2019-04-29T03:41:07.666Z,5.13
2019-04-29T03:43:36.974Z,4.40
2019-04-29T03:46:06.182Z,4.70
2019-04-29T03:48:35.441Z,4.50
2019-04-29T03:51:04.654Z,4.07
2019-04-29T03:53:33.889Z,4.27
2019-04-29T03:56:03.151Z,4.33
2019-04-29T03:58:32.925Z,4.77
2019-04-29T04:01:20.268Z,3.73
2019-04-29T04:03:54.465Z,4.33
2019-04-29T04:06:30.726Z,4.47
2019-04-29T04:09:11.675Z,4.70
2019-04-29T04:11:41.592Z,4.13
2019-04-29T04:14:10.925Z,4.47
2019-04-29T04:16:57.738Z,4.27
2019-04-29T04:19:27.893Z,4.30
2019-04-29T04:21:57.764Z,4.63
2019-04-29T04:24:27.168Z,4.77
2019-04-29T04:26:57.002Z,4.60
2019-04-29T04:29:26.343Z,4.60
2019-04-29T04:31:56.181Z,4.93
2019-04-29T04:34:25.764Z,4.23
2019-04-29T04:36:59.961Z,3.80
2019-04-29T04:39:28.122Z,4.87
2019-04-29T04:41:57.935Z,4.57
2019-04-29T04:44:46.303Z,4.60
2019-04-29T04:47:16.054Z,4.73
2019-04-29T04:49:45.413Z,5.00
2019-04-29T04:52:15.526Z,4.47
2019-04-29T04:54:47.108Z,4.83
2019-04-29T04:57:17.571Z,4.83
2019-04-29T04:59:47.491Z,4.70
2019-04-29T05:02:18.095Z,4.90
2019-04-29T05:04:48.021Z,4.27
2019-04-29T05:07:18.313Z,5.00
2019-04-29T05:09:48.209Z,5.50
2019-04-29T05:12:17.512Z,4.30
2019-04-29T05:14:46.677Z,4.80
2019-04-29T05:17:16.463Z,4.70
2019-04-29T05:19:46.413Z,4.67
2019-04-29T05:22:16.285Z,4.87
2019-04-29T05:24:46.211Z,5.47
2019-04-29T05:27:16.148Z,5.00
2019-04-29T05:29:45.473Z,5.87
2019-04-29T05:32:15.226Z,5.00
2019-04-29T05:34:48.199Z,4.83
2019-04-29T05:37:28.182Z,4.47
2019-04-29T05:39:58.151Z,4.70
2019-04-29T05:42:27.616Z,4.57
2019-04-29T05:45:22.739Z,4.77
2019-04-29T05:48:03.857Z,4.87
2019-04-29T05:50:58.486Z,4.83
2019-04-29T05:53:34.821Z,4.60
2019-04-29T05:56:04.163Z,5.20
2019-04-29T05:58:37.790Z,4.67
2019-04-29T06:01:09.572Z,4.97
2019-04-29T06:03:39.859Z,4.43
2019-04-29T06:06:12.166Z,5.43
2019-04-29T06:08:40.757Z,5.57
2019-04-29T06:11:10.767Z,5.57
2019-04-29T06:13:42.501Z,4.80
2019-04-29T06:16:15.871Z,5.50
2019-04-29T06:18:43.431Z,5.17
2019-04-29T06:21:13.315Z,4.97
2019-04-29T06:23:43.232Z,4.20
2019-04-29T06:26:12.586Z,5.07
2019-04-29T06:28:42.454Z,5.13
2019-04-29T06:31:12.609Z,5.10
2019-04-29T06:33:42.613Z,4.93
2019-04-29T06:36:12.544Z,4.33
2019-04-29T06:38:42.536Z,4.60
2019-04-29T06:41:12.470Z,4.77
2019-04-29T06:43:42.411Z,5.37
2019-04-29T06:46:12.463Z,4.90
2019-04-29T06:48:42.316Z,4.57
2019-04-29T06:51:12.278Z,4.90
2019-04-29T06:53:42.439Z,4.73
2019-04-29T06:56:12.431Z,5.57
2019-04-29T06:58:41.754Z,4.50
2019-04-29T07:01:11.545Z,5.37
2019-04-29T07:03:40.802Z,4.80
2019-04-29T07:06:10.778Z,4.83
2019-04-29T07:08:40.076Z,5.13
2019-04-29T07:11:09.898Z,5.57
2019-04-29T07:13:39.984Z,5.17
2019-04-29T07:16:09.888Z,5.03
2019-04-29T07:18:40.335Z,5.83
2019-04-29T07:21:11.981Z,4.63
2019-04-29T07:23:41.585Z,5.40
2019-04-29T07:26:11.471Z,4.80
2019-04-29T07:28:40.798Z,5.03
2019-04-29T07:31:10.689Z,5.40
2019-04-29T07:33:40.688Z,5.80
2019-04-29T07:36:11.556Z,5.73
2019-04-29T07:38:42.164Z,5.43
2019-04-29T07:41:14.186Z,6.00
2019-04-29T07:43:45.155Z,5.90
2019-04-29T07:46:55.580Z,5.07
2019-04-29T07:49:12.762Z,5.60
2019-04-29T07:51:40.830Z,4.87
2019-04-29T07:54:15.990Z,5.20
2019-04-29T07:56:43.555Z,4.93
2019-04-29T07:59:13.599Z,5.00
2019-04-29T08:01:42.934Z,5.73
2019-04-29T08:04:12.798Z,5.30
2019-04-29T08:06:43.170Z,5.17
2019-04-29T08:09:13.894Z,5.53
2019-04-29T08:11:44.095Z,4.90
2019-04-29T08:14:14.771Z,6.13
2019-04-29T08:16:44.158Z,5.73
2019-04-29T08:19:13.966Z,5.33
2019-04-29T08:21:45.466Z,5.57
2019-04-29T08:24:15.930Z,5.27
2019-04-29T08:26:47.689Z,5.50
2019-04-29T08:29:15.930Z,5.80
2019-04-29T08:31:45.164Z,5.67
2019-04-29T08:34:18.708Z,6.40
2019-04-29T08:36:46.030Z,6.47
2019-04-29T08:39:15.886Z,6.03
2019-04-29T08:41:45.846Z,6.53
2019-04-29T08:44:37.255Z,6.30
2019-04-29T08:47:15.694Z,6.53
2019-04-29T08:49:45.041Z,6.80
2019-04-29T08:52:15.025Z,5.93
2019-04-29T08:54:44.436Z,6.37
2019-04-29T08:57:14.316Z,6.07
2019-04-29T08:59:43.655Z,5.73
2019-04-29T09:02:12.898Z,6.87
2019-04-29T09:04:53.486Z,6.20
2019-04-29T09:07:17.523Z,6.50
2019-04-29T09:09:44.616Z,6.07
2019-04-29T09:12:13.788Z,6.67
2019-04-29T09:14:44.176Z,6.53
2019-04-29T09:17:20.202Z,6.63
2019-04-29T09:19:44.321Z,6.47
2019-04-29T09:22:15.749Z,6.90
2019-04-29T09:25:06.272Z,6.57
2019-04-29T09:27:40.777Z,6.90
2019-04-29T09:30:10.650Z,6.70
2019-04-29T09:32:40.599Z,7.77
2019-04-29T09:35:10.981Z,7.40
2019-04-29T09:37:40.873Z,7.57
2019-04-29T09:40:13.112Z,7.20
2019-04-29T09:42:51.996Z,7.17
2019-04-29T09:45:34.210Z,7.57
2019-04-29T09:48:04.593Z,6.97
2019-04-29T09:50:39.277Z,8.30
2019-04-29T09:53:05.429Z,8.47
2019-04-29T09:55:39.472Z,8.33
2019-04-29T09:58:06.493Z,8.03
2019-04-29T10:00:58.245Z,7.47
2019-04-29T10:03:34.859Z,7.00
2019-04-29T10:06:09.031Z,6.97
2019-04-29T10:08:39.161Z,6.50
2019-04-29T10:11:09.620Z,6.13
2019-04-29T10:13:39.594Z,6.00
2019-04-29T10:16:31.752Z,7.00
2019-04-29T10:19:13.954Z,6.90
2019-04-29T10:21:43.790Z,7.50
2019-04-29T10:24:14.666Z,7.40
2019-04-29T10:26:44.086Z,8.50
2019-04-29T10:29:18.497Z,8.60
2019-04-29T10:31:46.997Z,7.37
2019-04-29T10:34:16.775Z,7.33
2019-04-29T10:36:46.047Z,7.77
2019-04-29T10:39:34.048Z,7.57
2019-04-29T10:42:04.643Z,7.53
2019-04-29T10:44:42.921Z,8.27
2019-04-29T10:47:30.728Z,8.03
2019-04-29T10:50:04.518Z,8.63
2019-04-29T10:52:38.660Z,8.50
2019-04-29T10:55:06.691Z,8.93
2019-04-29T10:57:35.993Z,7.20
2019-04-29T11:00:23.383Z,7.37
2019-04-29T11:02:53.521Z,7.93
2019-04-29T11:05:42.907Z,7.43
2019-04-29T11:08:27.435Z,7.50
2019-04-29T11:11:02.377Z,7.97
2019-04-29T11:13:29.184Z,7.93
2019-04-29T11:15:59.050Z,8.67
2019-04-29T11:18:28.825Z,7.03
2019-04-29T11:20:58.605Z,6.37
2019-04-29T11:23:50.635Z,7.10
2019-04-29T11:26:52.621Z,5.77
2019-04-29T11:29:26.565Z,5.93
2019-04-29T11:31:55.889Z,6.00
2019-04-29T11:34:33.291Z,5.73
2019-04-29T11:37:02.925Z,6.17
2019-04-29T11:39:32.301Z,7.00
2019-04-29T11:42:01.802Z,6.10
2019-04-29T11:44:31.999Z,5.93
2019-04-29T11:47:01.461Z,5.93
2019-04-29T11:49:37.657Z,5.23
2019-04-29T11:52:09.879Z,5.40
2019-04-29T11:54:38.440Z,5.40
2019-04-29T11:57:10.082Z,4.70
2019-04-29T11:59:49.675Z,5.23
2019-04-29T12:02:44.806Z,5.57
2019-04-29T12:05:16.161Z,5.30
2019-04-29T12:07:46.151Z,4.53
2019-04-29T12:10:16.481Z,4.23
2019-04-29T12:12:47.808Z,3.83
2019-04-29T12:15:39.199Z,4.07
2019-04-29T12:18:15.309Z,3.30
2019-04-29T12:20:54.227Z,3.07
2019-04-29T12:23:24.374Z,2.70
2019-04-29T12:25:54.342Z,2.80
2019-04-29T12:28:26.966Z,3.67
2019-04-29T12:30:58.430Z,3.30
2019-04-29T12:33:37.033Z,4.13
2019-04-29T12:36:06.561Z,3.83
2019-04-29T12:38:53.485Z,4.60
2019-04-29T12:41:48.639Z,4.00
2019-04-29T12:44:46.842Z,4.20
2019-04-29T12:47:31.624Z,3.93
2019-04-29T12:50:01.699Z,3.87
2019-04-29T12:52:31.589Z,4.40
2019-04-29T12:55:18.750Z,4.50
2019-04-29T12:57:32.459Z,4.67
2019-04-29T13:00:02.566Z,3.70
2019-04-29T13:02:49.758Z,4.37
2019-04-29T13:05:38.533Z,4.20
2019-04-29T13:08:27.482Z,4.87
2019-04-29T13:11:00.408Z,5.37
2019-04-29T13:13:30.352Z,4.20
2019-04-29T13:16:20.594Z,5.00
2019-04-29T13:19:17.067Z,4.70
2019-04-29T13:21:43.693Z,4.57
2019-04-29T13:24:23.117Z,4.63
2019-04-29T13:26:46.673Z,4.40
2019-04-29T13:29:26.803Z,5.13
2019-04-29T13:31:46.930Z,5.03
2019-04-29T13:34:24.635Z,5.23
2019-04-29T13:37:07.400Z,4.80
2019-04-29T13:39:39.218Z,4.67
2019-04-29T13:41:58.357Z,4.73
2019-04-29T13:44:29.025Z,4.03
2019-04-29T13:47:11.765Z,3.87
2019-04-29T13:49:51.416Z,4.17
2019-04-29T13:52:21.374Z,4.43
2019-04-29T13:54:51.343Z,4.40
2019-04-29T13:57:21.310Z,4.40
2019-04-29T14:00:09.046Z,4.87
2019-04-29T14:02:42.395Z,4.90
2019-04-29T14:05:12.636Z,4.60
2019-04-29T14:07:41.991Z,4.73
2019-04-29T14:10:14.932Z,4.37
2019-04-29T14:15:15.884Z,3.97
2019-04-29T14:17:45.446Z,4.10
2019-04-29T14:18:53.514Z,4.10
2019-04-29T14:20:17.508Z,4.53
2019-04-29T14:22:47.557Z,4.47
2019-04-29T14:25:17.460Z,3.87
2019-04-29T14:27:47.445Z,3.60
2019-04-29T14:30:20.832Z,3.80
2019-04-29T14:32:53.294Z,3.80
2019-04-29T14:35:32.274Z,3.80
2019-04-29T14:38:05.175Z,3.90
2019-04-29T14:40:33.121Z,4.23
2019-04-29T14:43:29.076Z,3.60
2019-04-29T14:46:07.005Z,3.80
2019-04-29T14:48:43.032Z,3.57
2019-04-29T14:51:12.495Z,5.10
2019-04-29T14:53:55.089Z,4.00
2019-04-29T14:56:15.801Z,4.63
2019-04-29T14:58:45.001Z,4.70
2019-04-29T15:01:43.309Z,5.10
2019-04-29T15:04:18.267Z,5.53
2019-04-29T15:06:45.530Z,5.37
2019-04-29T15:09:18.169Z,4.80
2019-04-29T15:12:10.527Z,4.73
2019-04-29T15:15:00.774Z,5.00
2019-04-29T15:17:40.516Z,5.33
2019-04-29T15:20:30.279Z,4.67
2019-04-29T15:22:58.854Z,3.67
2019-04-29T15:25:28.239Z,4.07
2019-04-29T15:27:57.449Z,3.03
2019-04-29T15:30:26.928Z,3.30
2019-04-29T15:32:57.956Z,4.70
2019-04-29T15:35:27.939Z,3.23
2019-04-29T15:37:57.981Z,4.87
2019-04-29T15:40:28.799Z,3.30
2019-04-29T15:42:58.461Z,3.53
2019-04-29T15:45:32.551Z,3.50
2019-04-29T15:47:59.689Z,3.97
2019-04-29T15:50:32.753Z,4.03
2019-04-29T15:53:02.985Z,3.93
2019-04-29T15:55:34.831Z,4.13
2019-04-29T15:58:02.403Z,3.43
2019-04-29T16:00:37.920Z,4.30
2019-04-29T16:03:03.218Z,4.30
2019-04-29T16:06:19.436Z,4.70
2019-04-29T16:09:00.354Z,4.53
2019-04-29T16:14:39.645Z,4.37
2019-04-29T16:17:09.701Z,4.63
2019-04-29T16:19:41.523Z,5.40
2019-04-29T16:22:13.162Z,5.50
2019-04-29T16:24:41.782Z,4.90
2019-04-29T16:27:11.748Z,5.97
2019-04-29T16:29:46.181Z,6.20
2019-04-29T16:32:16.361Z,5.93
2019-04-29T16:34:47.042Z,5.70
2019-04-29T16:37:19.364Z,6.30
2019-04-29T16:39:52.716Z,6.43
2019-04-29T16:42:30.963Z,6.40
2019-04-29T16:45:00.217Z,6.40
2019-04-29T16:47:29.376Z,6.60
2019-04-29T16:50:04.821Z,6.27
2019-04-29T16:52:30.281Z,6.03
2019-04-29T16:55:04.144Z,7.07
2019-04-29T16:57:31.673Z,6.73
2019-04-29T17:00:06.374Z,7.30
2019-04-29T17:02:33.391Z,6.97
2019-04-29T17:05:04.820Z,7.50
2019-04-29T17:07:34.154Z,7.00
2019-04-29T17:10:21.329Z,6.60
2019-04-29T17:12:51.722Z,7.03
2019-04-29T17:15:25.390Z,7.23
2019-04-29T17:17:52.045Z,6.77
2019-04-29T17:20:21.560Z,7.90
2019-04-29T17:22:51.390Z,7.63
2019-04-29T17:25:21.666Z,7.47
2019-04-29T17:28:11.417Z,6.77
2019-04-29T17:30:53.240Z,7.87
2019-04-29T17:33:49.803Z,7.90
2019-04-29T17:35:17.510Z,4.40
2019-04-29T17:36:26.496Z,8.23
2019-04-29T17:38:56.503Z,7.23
2019-04-29T17:41:26.445Z,9.27
2019-04-29T17:44:14.476Z,8.57
2019-04-29T17:46:59.782Z,8.10
2019-04-29T17:49:47.614Z,9.03
2019-04-29T17:52:21.045Z,8.07
2019-04-29T17:54:52.199Z,8.83
2019-04-29T17:57:31.714Z,8.60
2019-04-29T18:00:11.068Z,8.10
2019-04-29T18:02:59.266Z,8.53
2019-04-29T18:05:52.290Z,7.97
2019-04-29T18:08:13.192Z,8.63
2019-04-29T18:10:45.794Z,8.97
2019-04-29T18:13:17.286Z,9.40
2019-04-29T18:15:58.587Z,8.83
2019-04-29T18:18:24.626Z,8.53
2019-04-29T18:21:11.612Z,8.83
2019-04-29T18:24:06.526Z,8.83
2019-04-29T18:27:01.472Z,8.80
2019-04-29T18:29:36.392Z,9.37
2019-04-29T18:32:05.947Z,9.23
2019-04-29T18:34:37.151Z,9.73
2019-04-29T18:37:06.448Z,9.27
2019-04-29T18:39:36.927Z,10.43
2019-04-29T18:42:07.432Z,9.17
2019-04-29T18:44:40.576Z,8.57
2019-04-29T18:47:20.050Z,8.23
2019-04-29T18:49:41.038Z,9.23
2019-04-29T18:52:11.491Z,8.07
2019-04-29T18:54:41.421Z,9.00
2019-04-29T18:57:11.348Z,9.30
2019-04-29T18:59:42.182Z,8.80
2019-04-29T19:02:12.251Z,8.53
2019-04-29T19:05:04.100Z,8.10
2019-04-29T19:07:37.254Z,7.73
2019-04-29T19:10:09.091Z,8.00
2019-04-29T19:12:39.284Z,8.93
2019-04-29T19:15:11.562Z,8.63
2019-04-29T19:17:40.446Z,8.97
2019-04-29T19:20:13.002Z,8.47
2019-04-29T19:22:44.141Z,7.67
2019-04-29T19:25:12.230Z,8.57
2019-04-29T19:27:41.732Z,7.00
2019-04-29T19:30:16.002Z,7.83
2019-04-29T19:32:44.993Z,8.10
2019-04-29T19:35:16.564Z,7.80
2019-04-29T19:37:45.434Z,8.30
2019-04-29T19:40:15.107Z,8.20
2019-04-29T19:42:47.046Z,9.00
2019-04-29T19:45:17.601Z,7.93
2019-04-29T19:47:53.059Z,8.23
2019-04-29T19:50:19.788Z,8.10
2019-04-29T19:52:49.316Z,9.40
2019-04-29T19:55:18.572Z,9.40
2019-04-29T19:57:52.232Z,9.27
2019-04-29T20:00:28.358Z,9.30
2019-04-29T20:02:51.596Z,8.70
2019-04-29T20:05:50.414Z,9.87
2019-04-29T20:08:40.985Z,8.40
2019-04-29T20:10:52.820Z,8.57
2019-04-29T20:13:30.226Z,9.40
2019-04-29T20:16:10.934Z,9.17
2019-04-29T20:21:26.817Z,9.27
2019-04-29T20:21:28.766Z,9.47
2019-04-29T20:23:53.966Z,9.47
2019-04-29T20:26:29.109Z,10.20
2019-04-29T20:28:55.719Z,11.65
2019-04-29T20:31:26.209Z,9.67
2019-04-29T20:33:58.630Z,9.77
2019-04-29T20:36:38.241Z,8.50
2019-04-29T20:38:58.907Z,9.90
2019-04-29T20:41:40.254Z,9.83
2019-04-29T20:44:07.006Z,10.67
2019-04-29T20:46:44.575Z,9.67
2019-04-29T20:49:05.837Z,9.57
2019-04-29T20:51:48.909Z,9.40
2019-04-29T20:54:15.775Z,10.30
2019-04-29T20:56:46.931Z,8.63
2019-04-29T20:59:15.692Z,8.47
2019-04-29T21:01:49.538Z,9.60
2019-04-29T21:04:30.936Z,9.10
2019-04-29T21:06:59.709Z,8.70
2019-04-29T21:09:26.697Z,9.37
2019-04-29T21:12:25.565Z,9.53
2019-04-29T21:14:59.536Z,8.67
2019-04-29T21:17:31.954Z,9.57
2019-04-29T21:20:02.100Z,8.00
2019-04-29T21:22:31.438Z,7.47
2019-04-29T21:25:01.219Z,8.00
2019-04-29T21:27:30.553Z,7.67
2019-04-29T21:30:00.669Z,7.37
2019-04-29T21:32:34.584Z,6.50
2019-04-29T21:35:20.542Z,6.57
2019-04-29T21:38:11.206Z,6.23
2019-04-29T21:40:46.697Z,6.23
2019-04-29T21:43:20.520Z,6.63
2019-04-29T21:45:50.497Z,6.57
2019-04-29T21:48:25.308Z,6.70
2019-04-29T21:50:50.720Z,6.50
2019-04-29T21:53:20.552Z,7.27
2019-04-29T21:55:50.500Z,7.37
2019-04-29T21:58:19.793Z,6.53
2019-04-29T22:00:50.118Z,6.80
2019-04-29T22:03:26.534Z,7.23
2019-04-29T22:05:53.466Z,6.40
2019-04-29T22:08:27.165Z,6.77
2019-04-29T22:11:04.896Z,6.27
2019-04-29T22:13:30.687Z,7.07
2019-04-29T22:16:01.685Z,7.70
2019-04-29T22:18:32.057Z,6.87
2019-04-29T22:21:01.599Z,7.73
2019-04-29T22:23:31.589Z,7.07
2019-04-29T22:26:01.561Z,7.93
2019-04-29T22:28:30.808Z,7.50
2019-04-29T22:31:00.698Z,7.60
2019-04-29T22:33:34.819Z,7.23
2019-04-29T22:36:02.291Z,8.40
2019-04-29T22:38:32.433Z,8.23
2019-04-29T22:41:05.059Z,7.77
2019-04-29T22:43:44.592Z,9.73
2019-04-29T22:46:13.268Z,8.17
2019-04-29T22:48:45.448Z,9.40
2019-04-29T22:51:18.724Z,8.90
2019-04-29T22:53:48.164Z,9.10
2019-04-29T22:56:17.987Z,9.97
2019-04-29T22:58:47.921Z,9.80
2019-04-29T23:01:17.960Z,9.63
2019-04-29T23:03:47.898Z,9.90
2019-04-29T23:06:17.898Z,8.93
2019-04-29T23:08:47.813Z,9.73
2019-04-29T23:11:17.770Z,8.97
2019-04-29T23:13:49.038Z,8.67
2019-04-29T23:16:19.099Z,9.00
2019-04-29T23:18:49.066Z,8.23
2019-04-29T23:21:47.304Z,8.93
2019-04-29T23:24:34.582Z,8.43
2019-04-29T23:27:06.155Z,8.77
2019-04-29T23:29:37.065Z,7.90
2019-04-29T23:32:08.925Z,9.07
2019-04-29T23:34:38.171Z,8.13
2019-04-29T23:37:07.420Z,8.57
2019-04-29T23:39:37.240Z,8.73
2019-04-29T23:42:12.231Z,9.50
2019-04-29T23:44:42.495Z,8.30
2019-04-29T23:47:10.378Z,8.37
2019-04-29T23:49:42.817Z,9.13
2019-04-29T23:52:13.473Z,9.03
2019-04-29T23:54:45.592Z,9.97
2019-04-29T23:57:25.488Z,8.93
